Time;durP1;ratioP1;P1;durP2;ratioP2;P2;SDS_P1;SDS_P2;PMS_P1;PMS_P2;Temp;Humidity;BMP_temperature;BMP_pressure;BME280_temperature;BME280_humidity;BME280_pressure;Samples;Min_cycle;Max_cycle;Signal;HPM_P1;HPM_P2
2023/12/27 00:00:50;;;;;;;4.35;2.17;;;;;;;0.43;74.19;97505.31;5071710;28;20040;-71
2023/12/27 00:03:16;;;;;;;7.45;2.90;;;;;;;0.40;74.67;97513.09;5077598;28;20415;-71
2023/12/27 00:05:42;;;;;;;6.40;2.47;;;;;;;0.37;74.97;97514.88;5073352;28;20048;-70
2023/12/27 00:08:08;;;;;;;7.18;3.40;;;;;;;0.32;75.07;97520.13;5072881;28;20044;-69
2023/12/27 00:10:34;;;;;;;5.28;2.47;;;;;;;0.33;74.69;97513.28;5076025;28;20044;-70
2023/12/27 00:13:01;;;;;;;11.38;4.53;;;;;;;0.41;75.06;97503.72;5089424;28;20049;-70
2023/12/27 00:15:27;;;;;;;7.88;2.97;;;;;;;0.57;74.74;97509.22;5059108;28;20048;-70
2023/12/27 00:17:53;;;;;;;9.68;3.55;;;;;;;0.55;74.65;97509.25;5069359;28;20036;-67
2023/12/27 00:20:19;;;;;;;7.20;3.33;;;;;;;0.54;74.60;97509.28;5076219;28;20105;-68
2023/12/27 00:22:45;;;;;;;3.67;2.00;;;;;;;0.51;74.88;97506.81;5079440;28;20515;-72
2023/12/27 00:25:11;;;;;;;5.15;2.67;;;;;;;0.49;74.97;97498.34;5075430;28;20083;-67
2023/12/27 00:27:37;;;;;;;9.43;3.42;;;;;;;0.34;74.80;97464.72;5074366;28;20529;-67
2023/12/27 00:30:03;;;;;;;9.50;3.15;;;;;;;0.52;74.70;97505.94;5084659;28;20044;-68
2023/12/27 00:32:32;;;;;;;7.50;3.22;;;;;;;0.53;74.49;97503.31;5073541;28;20512;-70
2023/12/27 00:34:58;;;;;;;6.63;3.03;;;;;;;0.60;74.65;97506.53;5073174;28;20083;-69
2023/12/27 00:37:24;;;;;;;6.25;3.17;;;;;;;0.64;75.02;97492.78;5075015;28;20044;-69
2023/12/27 00:39:50;;;;;;;12.07;3.58;;;;;;;0.67;74.42;97495.28;5075106;28;20761;-70
2023/12/27 00:42:16;;;;;;;10.73;4.28;;;;;;;0.79;74.49;97485.50;5073822;28;20472;-69
2023/12/27 00:44:42;;;;;;;8.77;3.20;;;;;;;0.81;74.21;97477.78;5065166;28;20089;-69
2023/12/27 00:47:09;;;;;;;7.90;3.38;;;;;;;0.76;74.08;97480.47;5068399;28;20692;-70
2023/12/27 00:49:35;;;;;;;9.20;3.47;;;;;;;0.51;74.37;97443.78;5076499;28;20047;-70
2023/12/27 00:52:01;;;;;;;9.07;3.67;;;;;;;0.80;74.51;97473.53;5072379;28;20040;-70
2023/12/27 00:54:28;;;;;;;17.10;6.35;;;;;;;1.01;74.35;97483.09;5073276;28;20036;-70
2023/12/27 00:56:54;;;;;;;7.13;3.00;;;;;;;1.14;73.94;97476.72;5075948;28;20094;-70
2023/12/27 00:59:20;;;;;;;8.55;3.38;;;;;;;1.05;73.45;97476.16;5082237;28;20525;-71
2023/12/27 01:01:46;;;;;;;6.03;2.80;;;;;;;1.16;73.44;97476.66;5073307;28;20536;-71
2023/12/27 01:04:11;;;;;;;5.43;2.33;;;;;;;1.03;73.35;97488.19;5075695;28;20051;-71
2023/12/27 01:06:37;;;;;;;6.93;2.70;;;;;;;0.85;73.85;97490.41;5079803;28;20087;-72
2023/12/27 01:09:03;;;;;;;4.35;2.03;;;;;;;0.79;73.85;97482.09;5078536;28;20044;-67
2023/12/27 01:11:30;;;;;;;4.13;2.08;;;;;;;0.77;73.70;97483.88;5073676;28;20140;-70
2023/12/27 01:13:56;;;;;;;5.35;1.83;;;;;;;0.85;73.97;97489.56;5075332;28;20427;-70
2023/12/27 01:16:23;;;;;;;6.07;2.90;;;;;;;0.66;73.93;97452.69;5070819;28;20072;-72
2023/12/27 01:18:50;;;;;;;7.25;3.10;;;;;;;0.94;73.99;97491.03;5085021;28;20208;-70
2023/12/27 01:21:16;;;;;;;5.90;2.92;;;;;;;1.00;73.75;97493.38;5081335;28;20036;-71
2023/12/27 01:23:43;;;;;;;6.63;3.10;;;;;;;1.03;73.85;97491.56;5074161;28;20523;-70
2023/12/27 01:26:09;;;;;;;6.72;2.92;;;;;;;0.99;73.95;97492.56;5074079;28;20047;-70
2023/12/27 01:28:35;;;;;;;6.30;2.92;;;;;;;1.04;73.53;97482.19;5090586;28;20117;-69
2023/12/27 01:31:02;;;;;;;6.47;3.30;;;;;;;1.18;73.68;97485.13;5072787;28;20534;-70
2023/12/27 01:33:28;;;;;;;6.15;2.95;;;;;;;1.12;73.35;97490.44;5062090;28;20078;-70
2023/12/27 01:35:54;;;;;;;12.02;3.78;;;;;;;1.16;73.71;97490.28;5078652;28;20515;-70
2023/12/27 01:38:20;;;;;;;8.75;3.45;;;;;;;1.19;73.63;97484.25;5073712;28;20035;-70
2023/12/27 01:40:50;;;;;;;9.80;2.90;;;;;;;1.04;73.45;97454.88;5078040;28;20032;-70
2023/12/27 01:43:16;;;;;;;10.40;2.78;;;;;;;0.91;73.82;97440.78;5068045;28;20058;-70
2023/12/27 01:45:42;;;;;;;6.43;2.78;;;;;;;1.10;73.78;97484.56;5071651;28;20508;-71
2023/12/27 01:48:09;;;;;;;10.70;4.38;;;;;;;1.16;73.65;97490.28;5054481;28;20173;-69
2023/12/27 01:50:35;;;;;;;4.97;2.38;;;;;;;1.16;73.89;97487.72;5071603;28;20040;-70
2023/12/27 01:53:01;;;;;;;5.82;2.47;;;;;;;1.09;73.90;97490.53;5074057;28;20044;-69
2023/12/27 01:55:27;;;;;;;6.25;2.70;;;;;;;0.90;74.25;97486.88;5069079;28;20184;-70
2023/12/27 01:57:53;;;;;;;4.65;1.83;;;;;;;0.83;74.70;97483.69;5074349;28;20127;-71
2023/12/27 02:00:19;;;;;;;3.40;1.98;;;;;;;0.68;75.06;97489.28;5073780;28;20054;-68
2023/12/27 02:02:45;;;;;;;5.32;2.35;;;;;;;0.69;75.96;97489.22;5074659;28;20044;-71
2023/12/27 02:05:10;;;;;;;6.18;3.10;;;;;;;0.44;76.09;97455.03;5083895;28;20044;-71
2023/12/27 02:07:37;;;;;;;7.75;3.42;;;;;;;0.66;76.43;97485.91;5072031;28;20508;-69
2023/12/27 02:10:06;;;;;;;7.13;2.92;;;;;;;0.49;76.42;97450.63;5072687;28;20036;-68
2023/12/27 02:12:35;;;;;;;7.88;2.63;;;;;;;0.63;76.16;97463.81;5074023;28;20040;-69
2023/12/27 02:15:02;;;;;;;3.10;1.50;;;;;;;0.70;76.05;97485.78;5075353;28;20519;-72
2023/12/27 02:17:32;;;;;;;5.05;1.92;;;;;;;0.62;76.78;97487.75;5078642;28;20069;-69
2023/12/27 02:19:58;;;;;;;8.48;2.63;;;;;;;0.38;76.72;97443.28;5078876;28;20047;-70
2023/12/27 02:22:26;;;;;;;6.38;2.70;;;;;;;0.62;77.02;97489.47;5072975;28;20044;-70
2023/12/27 02:24:53;;;;;;;7.43;2.88;;;;;;;0.59;77.18;97492.09;5058952;28;20045;-69
2023/12/27 02:27:20;;;;;;;8.90;3.75;;;;;;;0.61;77.56;97486.06;5069867;28;20051;-70
2023/12/27 02:29:46;;;;;;;9.07;3.05;;;;;;;0.47;77.50;97461.81;5081335;28;20032;-71
2023/12/27 02:32:12;;;;;;;7.32;3.47;;;;;;;0.76;77.07;97490.72;5071784;28;20048;-71
2023/12/27 02:34:38;;;;;;;7.63;3.85;;;;;;;0.74;77.00;97489.06;5073406;28;20043;-70
2023/12/27 02:37:04;;;;;;;4.90;2.08;;;;;;;0.71;76.97;97473.84;5073343;28;20040;-70
2023/12/27 02:39:30;;;;;;;7.60;3.20;;;;;;;0.83;76.95;97494.75;5047778;28;20028;-70
2023/12/27 02:41:56;;;;;;;8.85;3.85;;;;;;;0.85;76.88;97481.91;5067309;28;20100;-70
2023/12/27 02:44:25;;;;;;;7.75;2.72;;;;;;;0.48;76.45;97414.88;5075848;28;20039;-70
2023/12/27 02:46:55;;;;;;;5.65;2.25;;;;;;;0.97;76.24;97486.66;5087372;28;20055;-69
2023/12/27 02:49:21;;;;;;;6.10;3.03;;;;;;;1.02;75.83;97494.19;5066908;28;20028;-69
2023/12/27 02:51:48;;;;;;;10.20;2.85;;;;;;;1.01;75.47;97485.66;5079484;28;20463;-70
2023/12/27 02:54:14;;;;;;;6.93;3.08;;;;;;;1.02;76.10;97489.91;5070699;28;20044;-70
2023/12/27 02:56:40;;;;;;;8.95;3.22;;;;;;;0.92;75.76;97446.75;5072510;28;20051;-71
2023/12/27 02:59:08;;;;;;;5.97;2.97;;;;;;;1.09;75.61;97477.75;5050027;28;20467;-71
2023/12/27 03:01:34;;;;;;;3.63;2.13;;;;;;;1.05;75.27;97492.34;5076670;28;20536;-69
2023/12/27 03:04:00;;;;;;;7.90;3.38;;;;;;;1.04;75.72;97489.84;5090704;28;20044;-69
2023/12/27 03:06:26;;;;;;;7.47;3.05;;;;;;;0.82;75.34;97459.84;5071995;28;20044;-70
2023/12/27 03:08:53;;;;;;;9.40;3.88;;;;;;;1.20;75.72;97488.50;5053062;28;20043;-69
2023/12/27 03:11:20;;;;;;;9.65;3.55;;;;;;;1.22;75.30;97481.56;5084607;28;20512;-70
2023/12/27 03:13:46;;;;;;;7.70;2.97;;;;;;;0.69;74.98;97404.00;5070890;28;20424;-69
2023/12/27 03:16:12;;;;;;;8.52;4.00;;;;;;;1.13;74.83;97479.31;5080488;28;20519;-70
2023/12/27 03:18:39;;;;;;;8.93;3.97;;;;;;;1.02;74.84;97451.53;5085849;28;20044;-69
2023/12/27 03:21:05;;;;;;;8.18;4.10;;;;;;;1.33;74.73;97484.63;5071127;28;20519;-68
2023/12/27 03:23:31;;;;;;;8.45;3.22;;;;;;;1.32;74.58;97480.38;5086362;28;20040;-68
2023/12/27 03:25:57;;;;;;;3.00;1.98;;;;;;;1.15;74.43;97482.69;5079656;28;20752;-70
2023/12/27 03:28:23;;;;;;;6.40;2.88;;;;;;;1.03;74.58;97488.19;5075089;28;20051;-70
2023/12/27 03:30:50;;;;;;;6.50;2.55;;;;;;;0.98;75.11;97485.78;5075047;28;20097;-71
2023/12/27 03:33:16;;;;;;;8.45;3.97;;;;;;;1.00;74.94;97489.09;5064369;28;20049;-71
2023/12/27 03:35:42;;;;;;;8.50;3.45;;;;;;;1.16;75.05;97484.34;5071913;28;20040;-68
2023/12/27 03:38:07;;;;;;;8.90;3.47;;;;;;;1.14;74.77;97486.97;5072960;28;20051;-70
2023/12/27 03:40:35;;;;;;;6.40;3.20;;;;;;;1.23;74.94;97484.09;5074756;28;20134;-71
2023/12/27 03:43:01;;;;;;;7.07;3.45;;;;;;;1.36;74.72;97492.19;5073965;28;20194;-69
2023/12/27 03:45:27;;;;;;;6.40;3.00;;;;;;;1.34;74.57;97488.88;5077765;28;20054;-70
2023/12/27 03:47:53;;;;;;;7.72;3.55;;;;;;;1.40;74.49;97483.56;5088605;28;20036;-69
2023/12/27 03:50:19;;;;;;;6.82;2.88;;;;;;;1.19;74.15;97444.16;5082106;28;20040;-71
2023/12/27 03:52:45;;;;;;;6.40;2.97;;;;;;;1.26;74.11;97483.97;5076437;28;20059;-72
2023/12/27 03:55:12;;;;;;;6.00;2.60;;;;;;;1.00;74.37;97465.22;5066315;28;20405;-70
2023/12/27 03:57:38;;;;;;;8.85;3.22;;;;;;;1.13;74.60;97487.00;5085461;28;20040;-70
2023/12/27 04:00:05;;;;;;;9.10;3.92;;;;;;;1.28;74.69;97482.22;5073032;28;20048;-70
2023/12/27 04:02:33;;;;;;;;;;;;;;;1.37;74.13;97483.63;5082517;28;20427;-72
2023/12/27 04:04:59;;;;;;;9.02;3.47;;;;;;;1.34;74.21;97480.34;5083171;28;20122;-69
2023/12/27 04:07:25;;;;;;;6.95;3.03;;;;;;;1.30;74.21;97482.19;5078647;28;20608;-70
2023/12/27 04:09:52;;;;;;;7.95;3.28;;;;;;;1.26;74.30;97493.38;5085676;28;20423;-68
2023/12/27 04:12:19;;;;;;;8.95;3.30;;;;;;;1.22;74.28;97487.53;5068971;28;20040;-69
2023/12/27 04:14:45;;;;;;;11.07;4.65;;;;;;;1.31;74.51;97488.94;5078989;28;20056;-71
2023/12/27 04:17:11;;;;;;;7.20;3.45;;;;;;;1.40;74.11;97488.66;5086850;28;20043;-72
2023/12/27 04:19:37;;;;;;;8.00;3.70;;;;;;;1.39;73.97;97492.09;5069016;28;20040;-72
2023/12/27 04:22:03;;;;;;;8.55;3.35;;;;;;;1.49;73.95;97490.91;5086561;28;20424;-72
2023/12/27 04:24:29;;;;;;;8.20;3.75;;;;;;;1.44;73.94;97497.06;5085911;28;20040;-72
2023/12/27 04:26:55;;;;;;;9.10;3.28;;;;;;;1.44;73.67;97503.03;5084271;28;20309;-72
2023/12/27 04:29:22;;;;;;;10.45;3.70;;;;;;;1.36;73.89;97497.31;5082434;28;20035;-71
2023/12/27 04:31:48;;;;;;;7.60;3.30;;;;;;;1.19;73.85;97464.63;5069296;28;20108;-72
2023/12/27 04:34:14;;;;;;;9.23;3.83;;;;;;;1.43;73.61;97490.28;5072018;28;20595;-73
2023/12/27 04:36:40;;;;;;;7.18;3.75;;;;;;;1.42;74.15;97502.22;5080639;28;20105;-70
2023/12/27 04:39:08;;;;;;;11.35;3.90;;;;;;;1.54;73.90;97490.75;5066666;28;20628;-72
2023/12/27 04:41:35;;;;;;;9.30;3.70;;;;;;;1.39;73.36;97463.13;5074167;28;20036;-71
2023/12/27 04:44:01;;;;;;;8.25;3.38;;;;;;;1.61;73.46;97498.19;5074984;28;20048;-70
2023/12/27 04:46:27;;;;;;;8.55;3.95;;;;;;;1.51;73.15;97457.59;5071353;28;20047;-69
2023/12/27 04:48:53;;;;;;;10.18;3.97;;;;;;;1.68;72.87;97484.28;5067873;28;20693;-69
2023/12/27 04:51:20;;;;;;;10.35;4.00;;;;;;;1.36;73.04;97420.53;5061707;28;20070;-65
2023/12/27 04:53:46;;;;;;;10.15;4.10;;;;;;;1.93;72.73;97488.56;5083389;28;20040;-70
2023/12/27 04:56:15;;;;;;;8.10;4.35;;;;;;;1.76;72.54;97447.34;5070649;28;20133;-72
2023/12/27 04:58:41;;;;;;;10.00;3.78;;;;;;;1.96;72.20;97476.47;5071080;28;20058;-68
2023/12/27 05:01:08;;;;;;;10.90;3.92;;;;;;;1.76;72.13;97473.78;5086883;28;20043;-72
2023/12/27 05:03:40;;;;;;;10.10;4.43;;;;;;;1.59;72.46;97473.50;5086639;28;20040;-69
2023/12/27 05:06:09;;;;;;;9.15;4.00;;;;;;;1.42;72.81;97465.56;5084705;28;20438;-71
2023/12/27 05:08:37;;;;;;;9.95;3.80;;;;;;;1.37;73.45;97470.84;5076908;28;20527;-70
2023/12/27 05:11:10;;;;;;;17.13;5.22;;;;;;;1.49;73.51;97478.13;5066411;28;20044;-70
2023/12/27 05:13:36;;;;;;;11.13;4.57;;;;;;;1.52;73.38;97459.25;5076583;28;20049;-71
2023/12/27 05:16:02;;;;;;;13.38;5.35;;;;;;;1.76;72.88;97486.59;5049163;28;20048;-70
2023/12/27 05:18:28;;;;;;;10.18;4.30;;;;;;;1.89;72.86;97477.56;5068818;28;20106;-70
2023/12/27 05:20:54;;;;;;;12.60;4.97;;;;;;;1.88;72.33;97467.41;5068728;28;20094;-70
2023/12/27 05:23:20;;;;;;;11.77;4.97;;;;;;;1.96;72.14;97473.91;5069792;28;20033;-71
2023/12/27 05:25:45;;;;;;;10.05;4.68;;;;;;;1.89;72.24;97469.88;5068411;28;20040;-69
2023/12/27 05:28:11;;;;;;;8.88;3.83;;;;;;;1.63;71.75;97416.19;5069794;28;20048;-69
2023/12/27 05:30:37;;;;;;;9.45;4.50;;;;;;;2.10;72.00;97487.06;5068714;28;20123;-68
2023/12/27 05:33:03;;;;;;;8.65;3.67;;;;;;;1.91;71.52;97462.16;5069767;28;20044;-70
2023/12/27 05:35:29;;;;;;;7.70;3.67;;;;;;;2.10;71.60;97487.06;5071980;28;20055;-70
2023/12/27 05:37:55;;;;;;;8.52;3.83;;;;;;;2.08;71.51;97494.00;5070792;28;20566;-70
2023/12/27 05:40:21;;;;;;;8.82;4.20;;;;;;;2.07;71.19;97492.31;5088004;28;20069;-70
2023/12/27 05:42:47;;;;;;;8.43;4.15;;;;;;;1.95;71.38;97490.16;5090234;28;20098;-70
2023/12/27 05:45:13;;;;;;;7.38;3.92;;;;;;;1.71;71.50;97455.19;5071470;28;20437;-71
2023/12/27 05:47:39;;;;;;;10.07;3.92;;;;;;;1.70;71.66;97489.34;5068328;28;20424;-70
2023/12/27 05:50:06;;;;;;;9.20;3.97;;;;;;;1.56;72.03;97482.16;5079082;28;20032;-73
2023/12/27 05:52:32;;;;;;;11.38;5.07;;;;;;;1.35;72.52;97469.22;5088258;28;20490;-70
2023/12/27 05:54:58;;;;;;;9.07;4.70;;;;;;;1.48;72.63;97483.28;5089621;28;20078;-71
2023/12/27 05:57:24;;;;;;;10.43;4.28;;;;;;;1.55;72.83;97492.44;5088422;28;20036;-71
2023/12/27 05:59:51;;;;;;;12.10;4.80;;;;;;;1.64;72.79;97492.97;5078464;28;20131;-72
2023/12/27 06:02:17;;;;;;;11.90;4.93;;;;;;;1.59;72.61;97464.13;5071036;28;20040;-72
2023/12/27 06:04:43;;;;;;;11.20;4.68;;;;;;;1.98;72.38;97494.38;5085936;28;20068;-70
2023/12/27 06:07:09;;;;;;;12.05;5.35;;;;;;;2.10;72.23;97507.56;5081829;28;20037;-69
2023/12/27 06:09:34;;;;;;;10.23;4.07;;;;;;;2.20;71.64;97504.69;5069518;28;20036;-70
2023/12/27 06:12:00;;;;;;;10.63;4.28;;;;;;;2.04;71.57;97510.34;5084787;28;20044;-70
2023/12/27 06:14:26;;;;;;;10.98;5.25;;;;;;;1.96;71.92;97521.75;5081659;28;20424;-71
2023/12/27 06:16:52;;;;;;;11.90;4.93;;;;;;;2.08;72.11;97518.78;5067756;28;20052;-70
2023/12/27 06:19:18;;;;;;;12.50;4.75;;;;;;;2.13;72.00;97511.75;5068702;28;20044;-71
2023/12/27 06:21:44;;;;;;;11.90;6.05;;;;;;;1.81;72.19;97471.06;5067779;28;20048;-70
2023/12/27 06:24:09;;;;;;;12.55;4.45;;;;;;;1.92;71.91;97490.28;5067505;28;20482;-70
2023/12/27 06:26:35;;;;;;;9.88;4.25;;;;;;;2.12;72.57;97520.34;5067227;28;20089;-69
2023/12/27 06:29:01;;;;;;;10.48;4.90;;;;;;;2.23;72.08;97520.78;5070740;28;20078;-70
2023/12/27 06:31:29;;;;;;;11.40;5.05;;;;;;;2.33;71.75;97518.72;5089893;28;20047;-70
2023/12/27 06:33:55;;;;;;;14.27;4.57;;;;;;;2.30;71.33;97508.59;5089427;28;20036;-70
2023/12/27 06:36:22;;;;;;;12.23;4.95;;;;;;;2.47;71.40;97524.19;5088053;28;20047;-68
2023/12/27 06:38:48;;;;;;;12.07;4.80;;;;;;;2.51;71.07;97525.75;5089091;28;20046;-70
2023/12/27 06:41:16;;;;;;;10.07;4.82;;;;;;;2.51;70.98;97526.56;5070857;28;20428;-70
2023/12/27 06:43:43;;;;;;;13.73;5.07;;;;;;;2.53;71.00;97529.09;5067269;28;20032;-69
2023/12/27 06:46:09;;;;;;;14.00;4.78;;;;;;;2.33;71.11;97496.50;5050631;28;20117;-69
2023/12/27 06:48:36;;;;;;;12.60;5.30;;;;;;;2.37;70.68;97497.22;5067246;28;20123;-70
2023/12/27 06:51:03;;;;;;;10.10;4.45;;;;;;;2.65;70.56;97525.25;5050257;28;20098;-70
2023/12/27 06:53:29;;;;;;;8.75;4.53;;;;;;;2.75;70.30;97529.97;5068964;28;20045;-71
2023/12/27 06:55:55;;;;;;;12.82;4.97;;;;;;;2.76;70.20;97530.81;5068148;28;20431;-70
2023/12/27 06:58:21;;;;;;;10.82;5.47;;;;;;;2.82;69.84;97534.00;5069088;28;20081;-70
2023/12/27 07:00:47;;;;;;;11.43;4.38;;;;;;;2.85;69.86;97530.44;5081875;28;20040;-71
2023/12/27 07:03:13;;;;;;;9.80;4.70;;;;;;;2.67;69.55;97511.44;5089065;28;20036;-70
2023/12/27 07:05:39;;;;;;;11.13;4.93;;;;;;;2.73;69.48;97530.91;5087177;28;20138;-71
2023/12/27 07:08:05;;;;;;;12.65;4.05;;;;;;;2.48;69.71;97536.94;5087436;28;20043;-71
2023/12/27 07:10:31;;;;;;;10.48;4.85;;;;;;;2.31;70.13;97505.13;5078146;28;20044;-71
2023/12/27 07:12:58;;;;;;;10.40;4.57;;;;;;;2.32;70.37;97502.50;5066877;28;20078;-71
2023/12/27 07:15:23;;;;;;;12.30;5.38;;;;;;;2.71;70.10;97543.81;5060760;28;20496;-70
2023/12/27 07:17:50;;;;;;;10.95;5.20;;;;;;;2.86;69.72;97547.53;5091271;28;20039;-69
2023/12/27 07:20:16;;;;;;;10.82;5.10;;;;;;;2.93;69.51;97546.41;5087749;28;20706;-70
2023/12/27 07:22:42;;;;;;;11.32;5.20;;;;;;;3.04;68.97;97551.09;5070997;28;20055;-71
2023/12/27 07:25:09;;;;;;;10.00;4.30;;;;;;;3.06;69.06;97557.03;5071189;28;20577;-69
2023/12/27 07:27:34;;;;;;;12.88;5.95;;;;;;;2.98;68.95;97565.03;5070916;28;20173;-70
2023/12/27 07:30:00;;;;;;;12.65;4.70;;;;;;;3.00;68.72;97558.09;5070617;28;20131;-70
2023/12/27 07:32:28;;;;;;;13.15;6.10;;;;;;;2.97;68.68;97565.94;5072228;28;20511;-71
2023/12/27 07:34:57;;;;;;;14.40;5.70;;;;;;;2.74;68.50;97536.00;5054156;28;20043;-70
2023/12/27 07:37:24;;;;;;;11.68;4.88;;;;;;;2.85;68.84;97567.22;5072193;28;20032;-70
2023/12/27 07:39:50;;;;;;;13.68;5.18;;;;;;;2.65;68.71;97543.19;5053992;28;20505;-69
2023/12/27 07:42:16;;;;;;;14.00;5.75;;;;;;;2.93;68.55;97572.06;5071626;28;20048;-70
2023/12/27 07:44:42;;;;;;;12.50;4.85;;;;;;;3.03;68.12;97570.00;5070490;28;20032;-68
2023/12/27 07:47:08;;;;;;;11.15;5.03;;;;;;;3.05;68.51;97565.63;5071764;28;20182;-69
2023/12/27 07:49:35;;;;;;;14.50;5.63;;;;;;;3.07;68.20;97579.25;5071763;28;20184;-70
2023/12/27 07:52:01;;;;;;;13.98;5.63;;;;;;;3.03;68.07;97588.78;5071810;28;20040;-70
2023/12/27 07:54:27;;;;;;;12.98;5.60;;;;;;;3.06;68.46;97588.66;5071720;28;20070;-70
2023/12/27 07:56:53;;;;;;;11.32;5.05;;;;;;;3.09;68.36;97590.28;5071810;28;20558;-69
2023/12/27 07:59:19;;;;;;;12.75;5.18;;;;;;;3.09;67.99;97585.97;5070481;28;20039;-70
2023/12/27 08:01:45;;;;;;;14.68;6.00;;;;;;;3.20;68.09;97596.66;5053602;28;20040;-69
2023/12/27 08:04:11;;;;;;;13.93;6.07;;;;;;;3.23;68.20;97601.69;5070498;28;20064;-69
2023/12/27 08:06:37;;;;;;;15.32;6.90;;;;;;;3.23;67.93;97594.00;5070301;28;20128;-70
2023/12/27 08:09:04;;;;;;;14.85;6.40;;;;;;;3.27;68.16;97603.25;5070660;28;20127;-68
2023/12/27 08:11:29;;;;;;;15.90;6.53;;;;;;;3.23;67.67;97593.16;5072396;28;20040;-71
2023/12/27 08:13:55;;;;;;;13.15;5.88;;;;;;;3.24;67.46;97603.38;5071105;28;20093;-69
2023/12/27 08:16:21;;;;;;;12.73;6.20;;;;;;;3.23;67.39;97606.84;5071181;28;20048;-71
2023/12/27 08:18:47;;;;;;;17.00;6.22;;;;;;;3.26;67.54;97604.13;5072291;28;20097;-70
2023/12/27 08:21:13;;;;;;;19.67;7.18;;;;;;;3.12;67.47;97573.03;5070857;28;20486;-71
2023/12/27 08:23:39;;;;;;;14.13;6.10;;;;;;;3.41;67.27;97620.69;5070370;28;20179;-69
2023/12/27 08:26:06;;;;;;;15.63;6.35;;;;;;;3.43;66.94;97616.34;5071149;28;20131;-70
2023/12/27 08:28:36;;;;;;;15.23;5.90;;;;;;;3.41;67.07;97607.84;5071174;28;20055;-68
2023/12/27 08:31:06;;;;;;;17.65;6.60;;;;;;;3.42;67.08;97605.22;5070712;28;20055;-69
2023/12/27 08:33:32;;;;;;;;;;;;;;;3.56;66.90;97617.50;5070097;28;20036;-70
2023/12/27 08:36:00;;;;;;;13.00;5.80;;;;;;;3.40;66.74;97590.78;5070035;28;19965;-69
2023/12/27 08:38:27;;;;;;;12.47;5.27;;;;;;;3.57;66.50;97616.63;5070133;28;20040;-68
2023/12/27 08:40:53;;;;;;;14.43;6.03;;;;;;;3.58;66.24;97620.03;5069943;28;20044;-69
2023/12/27 08:43:20;;;;;;;16.33;5.80;;;;;;;3.62;66.53;97622.41;5070955;28;20048;-70
2023/12/27 08:45:49;;;;;;;14.02;5.60;;;;;;;3.65;66.25;97624.88;5053167;28;20040;-70
2023/12/27 08:48:15;;;;;;;10.82;5.03;;;;;;;3.67;66.05;97628.19;5070416;28;20418;-69
2023/12/27 08:50:41;;;;;;;12.80;5.90;;;;;;;3.40;65.84;97583.09;5088424;28;20047;-69
2023/12/27 08:53:07;;;;;;;10.70;4.93;;;;;;;3.67;65.91;97635.06;5089263;28;20072;-71
2023/12/27 08:55:34;;;;;;;11.40;4.97;;;;;;;3.69;65.68;97626.41;5091759;28;20122;-70
2023/12/27 08:58:00;;;;;;;13.00;5.78;;;;;;;3.71;65.45;97624.63;5076933;28;20056;-68
2023/12/27 09:00:26;;;;;;;9.13;3.65;;;;;;;3.77;65.23;97626.94;5070202;28;20050;-69
2023/12/27 09:02:51;;;;;;;6.93;3.40;;;;;;;3.75;64.47;97630.47;5070033;28;20040;-69
2023/12/27 09:05:18;;;;;;;12.27;5.30;;;;;;;3.80;64.62;97626.84;5070171;28;20048;-70
2023/12/27 09:07:44;;;;;;;6.47;3.17;;;;;;;3.84;64.49;97619.81;5070766;28;20154;-69
2023/12/27 09:10:10;;;;;;;8.35;3.72;;;;;;;3.92;64.20;97630.66;5071685;28;20040;-69
2023/12/27 09:12:38;;;;;;;7.18;2.67;;;;;;;3.86;63.49;97625.75;5070689;28;20055;-69
2023/12/27 09:15:08;;;;;;;10.95;3.30;;;;;;;3.87;63.22;97632.56;5069304;28;20082;-70
2023/12/27 09:17:34;;;;;;;11.38;4.13;;;;;;;3.86;63.02;97622.34;5070145;28;20139;-70
2023/12/27 09:20:00;;;;;;;9.48;3.55;;;;;;;3.97;63.18;97633.88;5052250;28;20045;-70
2023/12/27 09:22:28;;;;;;;5.65;2.97;;;;;;;4.11;62.85;97634.13;5068764;28;20047;-68
2023/12/27 09:24:54;;;;;;;8.38;3.40;;;;;;;4.21;62.40;97632.84;5051973;28;20060;-71
2023/12/27 09:27:20;;;;;;;5.88;2.83;;;;;;;4.19;62.49;97632.06;5069284;28;20122;-69
2023/12/27 09:29:46;;;;;;;7.40;3.42;;;;;;;4.20;62.26;97638.88;5068026;28;20566;-68
2023/12/27 09:32:12;;;;;;;7.82;3.53;;;;;;;4.04;62.01;97601.84;5055676;28;20051;-69
2023/12/27 09:34:38;;;;;;;7.22;3.33;;;;;;;4.29;61.94;97631.69;5069463;28;20041;-69
2023/12/27 09:37:04;;;;;;;5.72;2.90;;;;;;;4.13;61.59;97604.06;5068761;28;20040;-70
2023/12/27 09:39:30;;;;;;;9.57;3.70;;;;;;;4.24;61.50;97643.00;5067945;28;20048;-70
2023/12/27 09:41:57;;;;;;;12.73;4.80;;;;;;;4.16;61.93;97634.78;5069457;28;20125;-70
2023/12/27 09:44:23;;;;;;;7.60;3.10;;;;;;;4.05;61.91;97631.81;5067602;28;20039;-69
2023/12/27 09:46:50;;;;;;;4.80;2.85;;;;;;;3.83;62.02;97589.88;5065958;28;20040;-69
2023/12/27 09:49:16;;;;;;;6.20;2.85;;;;;;;4.11;61.44;97646.97;5070139;28;20040;-70
2023/12/27 09:51:42;;;;;;;6.85;3.40;;;;;;;4.06;61.86;97637.78;5068243;28;20043;-70
2023/12/27 09:54:08;;;;;;;8.90;3.42;;;;;;;3.97;61.85;97620.19;5083478;28;20048;-68
2023/12/27 09:56:36;;;;;;;12.98;4.47;;;;;;;4.03;62.29;97631.03;5071582;28;20039;-70
2023/12/27 09:59:06;;;;;;;8.93;4.53;;;;;;;3.74;62.00;97588.53;5089669;28;20121;-71
2023/12/27 10:01:37;;;;;;;12.80;5.38;;;;;;;4.01;62.06;97634.56;5088133;28;20051;-68
2023/12/27 10:04:31;;;;;;;14.40;5.70;;;;;;;4.02;63.06;97631.94;5054250;28;20039;-67
2023/12/27 10:06:58;;;;;;;13.65;6.00;;;;;;;4.01;63.12;97644.84;5089565;28;20058;-70
2023/12/27 10:09:24;;;;;;;13.38;6.50;;;;;;;4.02;63.26;97647.38;5086808;28;20040;-69
2023/12/27 10:11:50;;;;;;;12.57;5.68;;;;;;;4.01;63.47;97650.00;5087853;28;20562;-70
2023/12/27 10:14:16;;;;;;;11.23;5.05;;;;;;;3.97;63.67;97651.84;5056965;28;20166;-69
2023/12/27 10:16:42;;;;;;;11.30;5.60;;;;;;;3.96;63.43;97657.91;5068840;28;20397;-70
2023/12/27 10:19:40;;;;;;;11.73;4.95;;;;;;;3.95;63.54;97663.09;5067562;28;20047;-71
2023/12/27 10:22:09;;;;;;;9.35;4.35;;;;;;;3.91;63.83;97662.38;5068678;28;20075;-69
2023/12/27 10:24:36;;;;;;;12.27;5.07;;;;;;;3.68;63.50;97634.19;5067567;28;20531;-68
2023/12/27 10:27:05;;;;;;;10.15;4.28;;;;;;;3.88;63.67;97667.63;5068921;28;20048;-69
2023/12/27 10:29:32;;;;;;;10.77;4.68;;;;;;;3.83;63.52;97660.09;5067243;28;20132;-69
2023/12/27 10:31:59;;;;;;;9.23;4.78;;;;;;;3.62;63.98;97627.56;5068849;28;20189;-69
2023/12/27 10:34:26;;;;;;;14.27;5.53;;;;;;;3.87;63.66;97672.84;5050980;28;20424;-68
2023/12/27 10:36:52;;;;;;;13.95;6.03;;;;;;;3.80;63.54;97656.84;5067418;28;20036;-70
2023/12/27 10:39:18;;;;;;;13.27;6.57;;;;;;;3.49;64.01;97631.50;5069007;28;20111;-70
2023/12/27 10:41:44;;;;;;;11.32;6.15;;;;;;;3.79;63.99;97681.69;5068680;28;20040;-69
2023/12/27 10:44:11;;;;;;;14.82;6.53;;;;;;;3.82;64.51;97691.84;5067879;28;20097;-70
2023/12/27 10:46:39;;;;;;;13.65;6.53;;;;;;;3.80;64.34;97695.38;5067563;28;20036;-69
2023/12/27 10:49:05;;;;;;;17.00;6.28;;;;;;;3.75;64.44;97698.13;5050796;28;20036;-69
2023/12/27 10:51:37;;;;;;;15.90;6.20;;;;;;;3.68;64.26;97698.41;5068539;28;20481;-69
2023/12/27 10:54:04;;;;;;;15.32;6.45;;;;;;;3.69;64.56;97702.66;5067152;28;20041;-69
2023/12/27 10:56:40;;;;;;;16.67;6.15;;;;;;;3.63;65.03;97702.88;5067345;28;20424;-69
2023/12/27 10:59:07;;;;;;;20.13;5.97;;;;;;;3.49;65.18;97695.72;5068544;28;20033;-69
2023/12/27 11:01:35;;;;;;;15.75;6.13;;;;;;;3.49;65.26;97712.88;5067457;28;20041;-69
2023/12/27 11:04:09;;;;;;;13.70;6.10;;;;;;;3.44;65.27;97713.03;5084337;28;20051;-69
2023/12/27 11:06:39;;;;;;;14.18;4.80;;;;;;;3.20;65.21;97683.13;5066987;28;20048;-70
2023/12/27 11:09:09;;;;;;;16.58;5.15;;;;;;;3.38;65.39;97726.94;5066964;28;20044;-69
2023/12/27 11:11:39;;;;;;;10.70;4.30;;;;;;;3.36;64.91;97733.00;5085437;28;20051;-68
2023/12/27 11:14:08;;;;;;;9.20;3.92;;;;;;;3.35;64.53;97729.59;5082348;28;20040;-68
2023/12/27 11:16:35;;;;;;;8.30;3.53;;;;;;;3.32;64.08;97722.03;5067021;28;20051;-68
2023/12/27 11:19:06;;;;;;;8.50;3.13;;;;;;;3.35;63.32;97736.47;5067469;28;20052;-68
2023/12/27 11:21:36;;;;;;;6.60;3.00;;;;;;;3.38;63.13;97733.81;5067115;28;20033;-69
2023/12/27 11:24:05;;;;;;;5.40;2.40;;;;;;;3.40;62.24;97734.59;5066995;28;20028;-69
2023/12/27 11:26:36;;;;;;;4.60;2.30;;;;;;;3.39;61.34;97743.19;5083428;28;20512;-68
2023/12/27 11:29:10;;;;;;;6.18;2.15;;;;;;;3.37;61.02;97738.09;5066995;28;20581;-68
2023/12/27 11:31:39;;;;;;;7.55;2.33;;;;;;;3.33;60.78;97746.81;5068028;28;20045;-69
2023/12/27 11:34:05;;;;;;;6.82;2.60;;;;;;;3.33;60.38;97745.97;5066327;28;20093;-70
2023/12/27 11:36:31;;;;;;;5.63;2.72;;;;;;;3.34;59.73;97756.22;5068074;28;20036;-68